createdAt,value
2022-08-22T00:02:48.063Z,47.77
2022-08-22T00:02:54.798Z,47.44
2022-08-22T00:04:57.940Z,47.29
2022-08-22T00:09:54.132Z,47.63
2022-08-22T00:14:47.255Z,47.84
2022-08-22T00:19:51.913Z,47.70
2022-08-22T00:25:25.419Z,47.84
2022-08-22T00:30:39.380Z,47.67
2022-08-22T00:36:09.496Z,47.26
2022-08-22T00:41:28.143Z,47.33
2022-08-22T00:47:05.871Z,47.17
2022-08-22T00:52:16.373Z,46.93
2022-08-22T00:57:12.727Z,46.83
2022-08-22T01:02:43.849Z,46.90
2022-08-22T01:07:51.652Z,47.28
2022-08-22T01:12:59.030Z,46.89
2022-08-22T01:18:16.755Z,46.89
2022-08-22T01:23:46.803Z,46.76
2022-08-22T01:29:03.565Z,46.90
2022-08-22T01:34:36.370Z,46.34
2022-08-22T01:39:37.663Z,46.64
2022-08-22T01:44:44.501Z,46.53
2022-08-22T01:50:22.073Z,46.92
2022-08-22T01:55:27.759Z,47.00
2022-08-22T02:00:34.703Z,46.60
2022-08-22T02:05:39.319Z,46.78
2022-08-22T02:11:00.415Z,46.65
2022-08-22T02:16:27.680Z,46.52
2022-08-22T02:21:33.621Z,46.30
2022-08-22T02:26:50.539Z,46.45
2022-08-22T02:32:14.703Z,46.59
2022-08-22T02:37:10.638Z,46.47
2022-08-22T02:42:29.290Z,46.38
2022-08-22T02:47:47.503Z,46.15
2022-08-22T02:53:17.487Z,46.40
2022-08-22T02:58:13.565Z,46.61
2022-08-22T03:03:20.212Z,46.16
2022-08-22T03:08:24.385Z,46.09
2022-08-22T03:13:27.331Z,46.54
2022-08-22T03:18:38.961Z,46.14
2022-08-22T03:23:35.951Z,46.48
2022-08-22T03:28:59.471Z,46.13
2022-08-22T03:34:32.596Z,46.14
2022-08-22T03:39:58.511Z,46.28
2022-08-22T03:44:56.978Z,46.41
2022-08-22T03:50:18.136Z,46.04
2022-08-22T03:55:14.748Z,46.22
2022-08-22T04:00:56.709Z,45.73
2022-08-22T04:06:12.631Z,45.49
2022-08-22T04:11:09.367Z,45.59
2022-08-22T04:16:38.105Z,46.06
2022-08-22T04:21:49.559Z,45.96
2022-08-22T04:26:56.693Z,45.77
2022-08-22T04:32:03.781Z,45.85
2022-08-22T04:37:25.943Z,46.07
2022-08-22T04:42:38.198Z,45.66
2022-08-22T04:47:37.109Z,45.88
2022-08-22T04:52:50.066Z,46.13
2022-08-22T04:58:12.658Z,45.86
2022-08-22T05:03:16.761Z,46.07
2022-08-22T05:08:32.732Z,46.48
2022-08-22T05:13:44.656Z,46.09
2022-08-22T05:18:53.701Z,46.28
2022-08-22T05:24:17.753Z,46.45
2022-08-22T05:29:14.324Z,46.81
2022-08-22T05:34:39.387Z,47.84
2022-08-22T05:39:41.868Z,48.79
2022-08-22T05:44:38.927Z,49.53
2022-08-22T05:49:49.467Z,49.26
2022-08-22T05:54:53.395Z,49.29
2022-08-22T05:59:54.739Z,49.14
2022-08-22T06:05:01.395Z,49.06
2022-08-22T06:10:26.502Z,48.40
2022-08-22T06:15:39.987Z,48.70
2022-08-22T06:21:10.297Z,48.13
2022-08-22T06:26:06.296Z,48.20
2022-08-22T06:31:37.141Z,47.95
2022-08-22T06:36:34.092Z,47.06
2022-08-22T06:41:31.679Z,46.39
2022-08-22T06:46:28.374Z,46.67
2022-08-22T06:51:24.270Z,46.36
2022-08-22T06:56:34.675Z,46.81
2022-08-22T07:01:45.362Z,46.44
2022-08-22T07:06:50.553Z,46.46
2022-08-22T07:11:44.750Z,46.40
2022-08-22T07:16:46.091Z,46.51
2022-08-22T07:21:47.034Z,46.78
2022-08-22T07:26:47.767Z,46.91
2022-08-22T07:31:50.903Z,46.53
2022-08-22T07:37:22.008Z,46.84
2022-08-22T07:42:28.632Z,46.78
2022-08-22T07:47:27.284Z,46.80
2022-08-22T07:52:22.260Z,46.18
2022-08-22T07:57:37.743Z,46.24
2022-08-22T08:02:32.406Z,46.15
2022-08-22T08:07:28.944Z,46.47
2022-08-22T08:12:38.416Z,46.02
2022-08-22T08:17:34.646Z,46.46
2022-08-22T08:22:28.627Z,46.18
2022-08-22T08:27:50.127Z,46.17
2022-08-22T08:32:49.144Z,46.77
2022-08-22T08:37:49.395Z,46.93
2022-08-22T08:43:25.400Z,46.88
2022-08-22T08:48:44.725Z,46.82
2022-08-22T08:53:59.479Z,46.20
2022-08-22T08:59:10.223Z,46.51
2022-08-22T09:04:17.178Z,46.74
2022-08-22T09:09:31.055Z,46.72
2022-08-22T09:14:44.351Z,46.62
2022-08-22T09:19:56.791Z,46.67
2022-08-22T09:24:49.979Z,46.59
2022-08-22T09:29:54.537Z,46.71
2022-08-22T09:34:59.731Z,45.90
2022-08-22T09:40:01.381Z,45.48
2022-08-22T09:45:38.966Z,45.51
2022-08-22T09:51:13.490Z,45.66
2022-08-22T09:56:21.461Z,45.67
2022-08-22T10:01:19.175Z,45.57
2022-08-22T10:06:23.132Z,45.99
2022-08-22T10:11:26.422Z,46.29
2022-08-22T10:16:27.698Z,46.32
2022-08-22T10:21:25.203Z,46.07
2022-08-22T10:26:22.597Z,46.22
2022-08-22T10:31:58.367Z,46.21
2022-08-22T10:37:03.864Z,46.04
2022-08-22T10:42:28.202Z,46.55
2022-08-22T10:47:38.718Z,46.40
2022-08-22T10:52:39.192Z,46.60
2022-08-22T10:57:43.511Z,46.31
2022-08-22T11:02:53.095Z,46.50
2022-08-22T11:07:48.917Z,46.41
2022-08-22T11:13:07.835Z,46.37
2022-08-22T11:18:27.101Z,45.90
2022-08-22T11:23:42.454Z,45.89
2022-08-22T11:28:55.863Z,46.04
2022-08-22T11:34:07.329Z,45.48
2022-08-22T11:39:18.417Z,45.28
2022-08-22T11:45:00.524Z,44.04
2022-08-22T11:50:24.565Z,43.73
2022-08-22T11:55:23.765Z,43.29
2022-08-22T12:00:17.656Z,43.50
2022-08-22T12:05:24.583Z,44.17
2022-08-22T12:10:30.996Z,44.95
2022-08-22T12:15:46.932Z,44.79
2022-08-22T12:21:04.980Z,43.57
2022-08-22T12:26:22.264Z,42.73
2022-08-22T12:31:20.975Z,42.55
2022-08-22T12:36:39.062Z,41.79
2022-08-22T12:42:04.278Z,41.63
2022-08-22T12:47:19.986Z,41.21
2022-08-22T12:52:31.262Z,40.57
2022-08-22T12:57:43.313Z,41.00
2022-08-22T13:02:39.888Z,40.98
2022-08-22T13:07:39.191Z,41.52
2022-08-22T13:12:44.112Z,41.32
2022-08-22T13:17:39.000Z,40.87
2022-08-22T13:22:36.088Z,40.99
2022-08-22T13:27:51.289Z,41.17
2022-08-22T13:32:52.774Z,41.25
2022-08-22T13:37:50.655Z,41.31
2022-08-22T13:43:02.066Z,41.48
2022-08-22T13:48:03.775Z,41.37
2022-08-22T13:53:02.453Z,41.16
2022-08-22T13:58:06.956Z,41.17
2022-08-22T14:03:32.893Z,41.28
2022-08-22T14:08:49.079Z,41.06
2022-08-22T14:14:00.109Z,41.07
2022-08-22T14:18:57.927Z,41.00
2022-08-22T14:24:07.061Z,41.01
2022-08-22T14:29:04.886Z,40.89
2022-08-22T14:34:11.054Z,40.96
2022-08-22T14:39:21.875Z,40.67
2022-08-22T14:44:44.881Z,40.70
2022-08-22T14:49:49.924Z,39.93
2022-08-22T14:54:50.918Z,39.97
2022-08-22T14:59:44.282Z,39.94
2022-08-22T15:04:44.344Z,40.14
2022-08-22T15:09:37.594Z,40.38
2022-08-22T15:14:36.662Z,40.45
2022-08-22T15:19:36.763Z,40.11
2022-08-22T15:24:39.662Z,40.03
2022-08-22T15:29:49.336Z,40.56
2022-08-22T15:34:52.459Z,40.29
2022-08-22T15:40:08.564Z,40.20
2022-08-22T15:45:05.176Z,40.28
2022-08-22T15:50:05.563Z,40.47
2022-08-22T15:55:23.292Z,40.92
2022-08-22T16:01:03.472Z,40.71
2022-08-22T16:06:05.272Z,40.71
2022-08-22T16:11:03.372Z,41.26
2022-08-22T16:16:04.918Z,41.07
2022-08-22T16:20:58.050Z,40.85
2022-08-22T16:25:52.276Z,40.81
2022-08-22T16:30:46.773Z,41.14
2022-08-22T16:36:17.492Z,40.88
2022-08-22T16:41:35.253Z,41.10
2022-08-22T16:46:38.707Z,41.86
2022-08-22T16:51:32.832Z,42.12
2022-08-22T16:56:55.510Z,42.44
2022-08-22T17:02:19.898Z,42.22
2022-08-22T17:07:16.046Z,42.09
2022-08-22T17:12:45.846Z,41.50
2022-08-22T17:18:12.235Z,41.04
2022-08-22T17:23:38.414Z,41.10
2022-08-22T17:28:43.469Z,40.99
2022-08-22T17:33:41.846Z,41.43
2022-08-22T17:38:55.944Z,41.18
2022-08-22T17:44:23.296Z,41.67
2022-08-22T17:49:35.831Z,41.44
2022-08-22T17:54:49.495Z,41.61
2022-08-22T18:00:13.202Z,41.46
2022-08-22T18:05:08.794Z,40.89
2022-08-22T18:10:06.684Z,41.08
2022-08-22T18:15:26.229Z,40.79
2022-08-22T18:20:26.293Z,41.44
2022-08-22T18:25:19.151Z,41.05
2022-08-22T18:30:11.996Z,40.99
2022-08-22T18:35:17.528Z,41.29
2022-08-22T18:40:45.535Z,41.58
2022-08-22T18:45:46.099Z,41.21
2022-08-22T18:50:40.144Z,41.56
2022-08-22T18:56:04.597Z,41.75
2022-08-22T19:01:08.804Z,41.47
2022-08-22T19:06:22.866Z,41.76
2022-08-22T19:11:23.412Z,42.17
2022-08-22T19:16:45.080Z,42.37
2022-08-22T19:21:57.172Z,42.41
2022-08-22T19:27:10.619Z,44.63
2022-08-22T19:32:12.783Z,43.70
2022-08-22T19:37:30.695Z,41.83
2022-08-22T19:42:27.632Z,42.00
2022-08-22T19:47:24.824Z,43.92
2022-08-22T19:52:30.046Z,45.11
2022-08-22T19:57:47.573Z,43.67
2022-08-22T20:02:59.560Z,43.25
2022-08-22T20:08:34.789Z,41.33
2022-08-22T20:13:32.475Z,41.33
2022-08-22T20:19:07.828Z,41.67
2022-08-22T20:24:12.598Z,40.77
2022-08-22T20:29:08.125Z,57.13
2022-08-22T20:34:09.235Z,64.16
2022-08-22T20:39:16.329Z,59.04
2022-08-22T20:44:22.484Z,60.40
2022-08-22T20:49:29.528Z,59.72
2022-08-22T20:54:26.348Z,60.50
2022-08-22T20:59:37.842Z,61.00
2022-08-22T21:04:58.287Z,61.15
2022-08-22T21:10:22.564Z,60.57
2022-08-22T21:15:30.455Z,60.02
2022-08-22T21:20:24.696Z,58.52
2022-08-22T21:25:18.210Z,58.36
2022-08-22T21:30:22.035Z,56.55
2022-08-22T21:35:55.501Z,55.14
2022-08-22T21:40:48.669Z,54.43
2022-08-22T21:45:46.006Z,54.07
2022-08-22T21:50:42.121Z,53.69
2022-08-22T21:55:43.922Z,52.85
2022-08-22T22:00:49.447Z,52.16
2022-08-22T22:05:44.540Z,51.15
2022-08-22T22:10:40.437Z,50.82
2022-08-22T22:15:40.695Z,49.57
2022-08-22T22:20:35.033Z,48.82
2022-08-22T22:25:40.973Z,48.22
2022-08-22T22:30:42.127Z,48.62
2022-08-22T22:35:35.271Z,48.33
2022-08-22T22:40:29.723Z,48.02
2022-08-22T22:45:23.522Z,47.48
2022-08-22T22:50:18.449Z,47.65
2022-08-22T22:55:12.789Z,47.50
2022-08-22T23:00:18.996Z,46.93
2022-08-22T23:05:12.756Z,46.49
2022-08-22T23:10:08.023Z,46.36
2022-08-22T23:15:01.070Z,46.68
2022-08-22T23:19:54.503Z,46.65
2022-08-22T23:24:50.929Z,46.58
2022-08-22T23:29:44.516Z,46.48
2022-08-22T23:34:43.413Z,46.29
2022-08-22T23:39:39.122Z,46.04
2022-08-22T23:44:36.943Z,46.26
2022-08-22T23:49:31.059Z,46.13
2022-08-22T23:54:25.592Z,46.06
2022-08-22T23:59:21.495Z,45.76
